Ebeye, MH

11:38 AM MHT on October 01, 2014 (GMT +1200)
Andersen Air Force Base | Change Station
CLOSE
Current Station
Airport
Location: Andersen AFB,
Elevation: 614 ft
Nearby Weather Stations

Elev 614 ft 13.58 °N, 144.93 °E | Updated 40 minutes ago

Partly Cloudy
Partly Cloudy
80 °F
Feels Like 86 °F
N
14
Wind Variable Wind from SW

Today
High -- | Low -- °F
--% Chance of Precip.
Yesterday
High -- | Low -- °F
Precip. -- in
6:23 AM 6:27 PM
Waxing Crescent, 41% visible
Pressure 29.58 in
Visibility 7.0 miles
Clouds Few 15000 ft
Heat Index 86 °F
Dew Point 77 °F
Humidity 89%
Rainfall 1.17 in
Snow Depth Not available.
UV 6 out of 12
Pollen Not available.
Air Quality Not available.
Flu Activity Not available.
METAR PGUA 302258Z 23012KT 7SM FEW150 27/25 A2961 RMK AO2A SLP017 T02670248 RVRNO $

More Conditions Fewer Conditions

Pressure 29.58 in
Visibility 7.0 miles
Clouds Few 15000 ft
Heat Index 86 °F
Dew Point 77 °F
Humidity 89%
Rainfall 1.17 in
Snow Depth Not available.
UV 6 out of 12
Pollen Not available.
Air Quality Not available.
Flu Activity Not available.
METAR PGUA 302258Z 23012KT 7SM FEW150 27/25 A2961 RMK AO2A SLP017 T02670248 RVRNO $

More Conditions Fewer Conditions

10-Day Weather Forecast

Almanac

Astronomy

Oct. 01, 2014 Rise Set
Actual Time 6:23 AM MHT 6:27 PM MHT
Civil Twilight 6:02 AM MHT 6:48 PM MHT
Nautical Twilight 5:38 AM MHT 7:12 PM MHT
Astronomical Twilight 5:14 AM MHT 7:36 PM MHT
Moon 11:56 AM MHT (10/1) No Moon Set
Length of Visible Light 12h 45m
Length of Day
12h 03m
Tomorrow will be 0m 24s shorter.
Waxing Crescent, 41% of the Moon is Illuminated
Sep 30
Waxing Crescent
Oct 1
First Quarter
Oct 8
Full
Oct 15
Last Quarter
Oct 23
New

Community

WunderPhotos

Upload Photos

1,757,768 photos uploaded!

Nearby

Snow Depth

Station Depth Elevation
No new snow has been reported.

Earthquake Activity

City Distance Mag. Time & Date
No recent earthquake activity has been reported nearby.
Minimum magnitude displayed is 2.5.

Coastal Water Temperatures

Place Temperature
No Stations Reporting

Nearby Weather Stations